createdAt,value
2018-12-15T00:01:13.622Z,32.80
2018-12-15T00:03:42.743Z,29.90
2018-12-15T00:08:51.396Z,26.70
2018-12-15T00:11:20.671Z,27.17
2018-12-15T00:13:49.777Z,24.43
2018-12-15T00:16:18.935Z,32.00
2018-12-15T00:18:48.228Z,32.37
2018-12-15T00:21:18.320Z,21.27
2018-12-15T00:26:26.613Z,23.87
2018-12-15T00:28:55.759Z,28.77
2018-12-15T00:31:25.017Z,23.73
2018-12-15T00:33:54.212Z,28.10
2018-12-15T00:36:23.364Z,33.03
2018-12-15T00:38:53.859Z,33.10
2018-12-15T00:41:23.076Z,24.82
2018-12-15T00:43:53.016Z,29.07
2018-12-15T00:46:23.095Z,27.50
2018-12-15T00:51:32.799Z,25.53
2018-12-15T00:54:01.948Z,31.63
2018-12-15T00:59:12.257Z,21.97
2018-12-15T01:01:41.484Z,36.00
2018-12-15T01:04:12.146Z,27.43
2018-12-15T01:06:41.367Z,26.10
2018-12-15T01:09:10.555Z,23.47
2018-12-15T01:11:39.668Z,23.20
2018-12-15T01:16:49.557Z,27.97
2018-12-15T01:19:18.576Z,26.00
2018-12-15T01:21:47.666Z,28.50
2018-12-15T01:24:17.912Z,27.63
2018-12-15T01:26:46.995Z,26.53
2018-12-15T01:29:17.644Z,26.93
2018-12-15T01:31:46.820Z,33.40
2018-12-15T01:34:15.972Z,31.83
2018-12-15T01:36:45.089Z,37.37
2018-12-15T01:39:14.121Z,23.47
2018-12-15T01:44:21.455Z,31.77
2018-12-15T01:49:29.112Z,31.10
2018-12-15T01:51:58.312Z,35.88
2018-12-15T01:54:27.531Z,29.00
2018-12-15T01:56:56.736Z,35.33
2018-12-15T01:59:25.963Z,31.73
2018-12-15T02:01:55.109Z,22.63
2018-12-15T02:04:24.287Z,29.30
2018-12-15T02:06:55.148Z,27.05
2018-12-15T02:09:24.264Z,28.90
2018-12-15T02:11:54.076Z,30.20
2018-12-15T02:14:24.048Z,29.80
2018-12-15T02:16:54.176Z,31.05
2018-12-15T02:19:24.148Z,29.30
2018-12-15T02:21:54.128Z,37.20
2018-12-15T02:24:24.225Z,36.80
2018-12-15T02:29:33.372Z,30.53
2018-12-15T02:32:02.566Z,30.77
2018-12-15T02:34:31.725Z,35.93
2018-12-15T02:37:00.932Z,30.20
2018-12-15T02:42:09.322Z,26.80
2018-12-15T02:44:38.398Z,34.03
2018-12-15T02:47:07.561Z,32.28
2018-12-15T02:49:36.674Z,28.97
2018-12-15T02:54:44.081Z,32.50
2018-12-15T02:57:13.286Z,25.73
2018-12-15T02:59:42.705Z,28.23
2018-12-15T03:02:12.193Z,28.10
2018-12-15T03:04:41.389Z,33.33
2018-12-15T03:07:10.514Z,33.70
2018-12-15T03:09:39.627Z,32.30
2018-12-15T03:12:08.816Z,29.35
2018-12-15T03:14:38.007Z,40.78
2018-12-15T03:17:07.829Z,30.87
2018-12-15T03:19:36.944Z,32.10
2018-12-15T03:22:06.347Z,32.40
2018-12-15T03:27:16.412Z,39.37
2018-12-15T03:32:24.769Z,29.30
2018-12-15T03:34:55.088Z,32.15
2018-12-15T03:37:25.266Z,32.84
2018-12-15T03:39:55.099Z,32.23
2018-12-15T03:42:25.309Z,32.67
2018-12-15T03:44:55.284Z,34.95
2018-12-15T03:50:03.427Z,28.20
2018-12-15T03:52:32.526Z,33.30
2018-12-15T03:55:01.722Z,29.10
2018-12-15T03:57:30.868Z,30.57
2018-12-15T03:59:59.973Z,29.90
2018-12-15T04:02:29.183Z,37.30
2018-12-15T04:04:58.464Z,36.33
2018-12-15T04:07:27.550Z,35.98
2018-12-15T04:09:56.758Z,32.13
2018-12-15T04:12:25.980Z,30.77
2018-12-15T04:14:55.652Z,34.27
2018-12-15T04:17:25.755Z,31.50
2018-12-15T04:19:55.628Z,36.50
2018-12-15T04:22:25.814Z,30.44
2018-12-15T04:24:55.784Z,31.05
2018-12-15T04:27:25.760Z,32.06
2018-12-15T04:29:55.937Z,29.42
2018-12-15T04:32:25.935Z,25.97
2018-12-15T04:37:34.983Z,32.40
2018-12-15T04:40:05.051Z,33.53
2018-12-15T04:42:34.200Z,32.23
2018-12-15T04:45:03.313Z,35.43
2018-12-15T04:47:32.428Z,30.87
2018-12-15T04:52:42.825Z,32.47
2018-12-15T04:57:51.126Z,31.07
2018-12-15T05:03:01.459Z,27.03
2018-12-15T05:05:30.536Z,30.00
2018-12-15T05:07:59.759Z,23.93
2018-12-15T05:10:28.976Z,30.65
2018-12-15T05:12:58.088Z,25.70
2018-12-15T05:15:27.319Z,25.70
2018-12-15T05:20:35.469Z,23.40
2018-12-15T05:23:04.602Z,30.80
2018-12-15T05:25:33.744Z,30.87
2018-12-15T05:30:42.156Z,33.30
2018-12-15T05:33:11.323Z,28.77
2018-12-15T05:35:40.495Z,30.68
2018-12-15T05:40:48.640Z,44.93
2018-12-15T05:43:17.980Z,32.37
2018-12-15T05:48:26.275Z,31.80
2018-12-15T05:53:35.620Z,24.53
2018-12-15T05:56:04.812Z,28.52
2018-12-15T06:01:13.117Z,23.90
2018-12-15T06:06:21.270Z,26.60
2018-12-15T06:08:50.458Z,22.90
2018-12-15T06:11:19.548Z,27.37
2018-12-15T06:13:48.640Z,23.80
2018-12-15T06:16:17.901Z,23.33
2018-12-15T06:21:26.253Z,27.37
2018-12-15T06:23:55.481Z,20.10
2018-12-15T06:26:24.668Z,27.50
2018-12-15T06:28:53.868Z,22.90
2018-12-15T06:31:23.025Z,21.70
2018-12-15T06:33:52.084Z,26.70
2018-12-15T06:36:21.168Z,19.37
2018-12-15T06:38:50.339Z,19.70
2018-12-15T06:41:19.480Z,20.03
2018-12-15T06:43:48.683Z,19.53
2018-12-15T06:46:18.031Z,21.03
2018-12-15T06:48:47.678Z,13.43
2018-12-15T06:51:17.848Z,14.98
2018-12-15T06:56:26.948Z,33.60
2018-12-15T06:58:56.611Z,19.70
2018-12-15T07:01:25.735Z,13.75
2018-12-15T07:03:54.884Z,17.00
2018-12-15T07:06:23.993Z,18.20
2018-12-15T07:08:53.157Z,16.93
2018-12-15T07:11:22.299Z,17.73
2018-12-15T07:13:54.266Z,15.33
2018-12-15T07:16:23.392Z,21.10
2018-12-15T07:18:52.567Z,17.27
2018-12-15T07:21:21.687Z,17.23
2018-12-15T07:23:50.876Z,24.35
2018-12-15T07:26:20.063Z,17.73
2018-12-15T07:28:49.169Z,20.07
2018-12-15T07:31:18.315Z,19.33
2018-12-15T07:33:47.481Z,24.47
2018-12-15T07:38:57.112Z,20.40
2018-12-15T07:41:26.264Z,26.83
2018-12-15T07:43:55.360Z,21.83
2018-12-15T07:46:24.496Z,26.17
2018-12-15T07:48:53.639Z,17.00
2018-12-15T07:54:04.263Z,21.00
2018-12-15T07:56:33.447Z,22.57
2018-12-15T07:59:02.566Z,22.37
2018-12-15T08:01:31.844Z,19.98
2018-12-15T08:04:01.024Z,17.57
2018-12-15T08:06:30.104Z,19.60
2018-12-15T08:08:59.316Z,16.53
2018-12-15T08:11:33.795Z,24.47
2018-12-15T08:16:45.419Z,25.87
2018-12-15T08:19:14.611Z,18.13
2018-12-15T08:24:22.668Z,25.80
2018-12-15T08:26:51.844Z,24.57
2018-12-15T08:31:59.968Z,20.70
2018-12-15T08:34:30.540Z,24.60
2018-12-15T08:36:59.747Z,24.63
2018-12-15T08:39:28.861Z,24.67
2018-12-15T08:41:58.880Z,24.15
2018-12-15T08:44:29.048Z,20.82
2018-12-15T08:46:59.918Z,22.37
2018-12-15T08:49:28.980Z,26.82
2018-12-15T08:51:58.992Z,14.98
2018-12-15T08:54:29.535Z,19.80
2018-12-15T08:59:45.968Z,26.27
2018-12-15T09:02:15.168Z,23.97
2018-12-15T09:04:45.525Z,24.60
2018-12-15T09:07:14.844Z,27.93
2018-12-15T09:12:23.119Z,30.60
2018-12-15T09:14:52.372Z,24.92
2018-12-15T09:17:21.470Z,28.10
2018-12-15T09:19:50.671Z,21.87
2018-12-15T09:22:19.752Z,26.60
2018-12-15T09:24:48.900Z,27.05
2018-12-15T09:27:18.184Z,27.30
2018-12-15T09:29:47.318Z,24.02
2018-12-15T09:32:16.436Z,29.65
2018-12-15T09:34:45.645Z,30.73
2018-12-15T09:37:15.743Z,31.53
2018-12-15T09:39:44.869Z,22.20
2018-12-15T09:42:14.011Z,28.27
2018-12-15T09:44:43.444Z,26.35
2018-12-15T09:47:12.715Z,22.10
2018-12-15T09:49:41.803Z,21.50
2018-12-15T09:52:11.033Z,28.07
2018-12-15T09:57:20.060Z,22.37
2018-12-15T09:59:49.161Z,22.53
2018-12-15T10:02:18.407Z,21.63
2018-12-15T10:04:47.579Z,21.65
2018-12-15T10:07:16.792Z,29.40
2018-12-15T10:12:25.024Z,23.33
2018-12-15T10:14:54.176Z,18.17
2018-12-15T10:20:02.151Z,22.43
2018-12-15T10:22:32.453Z,18.67
2018-12-15T10:25:01.575Z,33.87
2018-12-15T10:27:31.344Z,21.58
2018-12-15T10:31:07.546Z,25.43
2018-12-15T10:33:36.724Z,26.33
2018-12-15T10:36:06.024Z,28.10
2018-12-15T10:38:35.184Z,24.83
2018-12-15T10:41:04.607Z,23.93
2018-12-15T10:43:33.736Z,26.33
2018-12-15T10:46:02.947Z,22.00
2018-12-15T10:51:10.140Z,20.43
2018-12-15T10:53:39.320Z,26.97
2018-12-15T10:56:08.460Z,24.40
2018-12-15T10:58:37.484Z,23.00
2018-12-15T11:01:11.771Z,29.80
2018-12-15T11:03:42.283Z,27.73
2018-12-15T11:06:11.376Z,20.27
2018-12-15T11:08:40.580Z,17.02
2018-12-15T11:11:10.724Z,22.70
2018-12-15T11:13:39.807Z,23.80
2018-12-15T11:16:09.010Z,23.37
2018-12-15T11:18:38.172Z,15.60
2018-12-15T11:21:07.296Z,25.57
2018-12-15T11:23:36.480Z,17.03
2018-12-15T11:26:05.783Z,19.27
2018-12-15T11:28:35.207Z,20.85
2018-12-15T11:31:04.636Z,15.50
2018-12-15T11:33:33.936Z,23.80
2018-12-15T11:36:03.172Z,17.85
2018-12-15T11:38:32.336Z,20.17
2018-12-15T11:41:02.120Z,18.42
2018-12-15T11:43:32.222Z,14.68
2018-12-15T11:46:03.511Z,22.73
2018-12-15T11:48:32.663Z,16.23
2018-12-15T11:51:02.236Z,16.42
2018-12-15T11:53:32.427Z,17.96
2018-12-15T11:58:40.724Z,23.30
2018-12-15T12:01:09.970Z,21.23
2018-12-15T12:03:39.032Z,17.10
2018-12-15T12:06:08.200Z,18.50
2018-12-15T12:08:37.515Z,17.62
2018-12-15T12:11:06.790Z,16.53
2018-12-15T12:13:35.960Z,17.73
2018-12-15T12:16:06.335Z,22.07
2018-12-15T12:18:35.768Z,24.40
2018-12-15T12:21:05.164Z,20.73
2018-12-15T12:23:34.425Z,17.30
2018-12-15T12:26:03.724Z,20.83
2018-12-15T12:28:33.027Z,14.00
2018-12-15T12:31:02.925Z,13.43
2018-12-15T12:33:32.957Z,20.50
2018-12-15T12:36:02.900Z,16.42
2018-12-15T12:38:32.875Z,23.02
2018-12-15T12:41:03.041Z,13.00
2018-12-15T12:43:32.991Z,18.27
2018-12-15T12:46:03.123Z,13.80
2018-12-15T12:48:33.083Z,15.22
2018-12-15T12:51:03.156Z,11.50
2018-12-15T12:53:33.036Z,18.00
2018-12-15T12:56:03.616Z,17.12
2018-12-15T12:58:33.119Z,16.36
2018-12-15T13:03:44.136Z,19.07
2018-12-15T13:06:13.251Z,15.00
2018-12-15T13:08:42.396Z,15.73
2018-12-15T13:11:11.580Z,23.93
2018-12-15T13:13:40.804Z,18.67
2018-12-15T13:16:10.093Z,13.27
2018-12-15T13:18:39.265Z,17.10
2018-12-15T13:21:08.472Z,18.45
2018-12-15T13:23:37.664Z,20.53
2018-12-15T13:26:06.779Z,17.57
2018-12-15T13:28:35.956Z,20.10
2018-12-15T13:31:05.145Z,18.60
2018-12-15T13:33:36.494Z,22.30
2018-12-15T13:36:17.705Z,23.27
2018-12-15T13:38:47.028Z,15.87
2018-12-15T13:41:16.483Z,19.23
2018-12-15T13:43:45.719Z,17.02
2018-12-15T13:48:53.961Z,20.13
2018-12-15T13:51:23.072Z,15.32
2018-12-15T13:53:52.231Z,19.50
2018-12-15T13:58:59.685Z,21.67
2018-12-15T14:01:28.772Z,21.80
2018-12-15T14:06:36.612Z,32.57
2018-12-15T14:09:08.474Z,18.23
2018-12-15T14:11:37.784Z,20.00
2018-12-15T14:14:06.968Z,23.83
2018-12-15T14:16:36.147Z,22.30
2018-12-15T14:19:05.445Z,25.73
2018-12-15T14:21:34.656Z,26.00
2018-12-15T14:24:04.695Z,19.02
2018-12-15T14:26:34.589Z,31.64
2018-12-15T14:29:04.890Z,28.92
2018-12-15T14:31:36.006Z,26.02
2018-12-15T14:34:05.233Z,28.50
2018-12-15T14:36:34.804Z,33.70
2018-12-15T14:39:07.771Z,28.45
2018-12-15T14:44:16.637Z,26.00
2018-12-15T14:46:45.792Z,21.82
2018-12-15T14:49:14.988Z,24.12
2018-12-15T14:51:44.231Z,29.27
2018-12-15T14:56:51.116Z,24.97
2018-12-15T14:59:20.408Z,34.17
2018-12-15T15:01:49.528Z,23.07
2018-12-15T15:04:18.785Z,33.30
2018-12-15T15:06:47.989Z,27.20
2018-12-15T15:09:18.019Z,28.85
2018-12-15T15:11:47.289Z,29.30
2018-12-15T15:14:16.400Z,26.73
2018-12-15T15:19:24.804Z,30.37
2018-12-15T15:21:53.952Z,36.88
2018-12-15T15:24:23.312Z,32.30
2018-12-15T15:26:52.539Z,22.05
2018-12-15T15:29:21.629Z,29.80
2018-12-15T15:31:50.753Z,29.97
2018-12-15T15:34:19.915Z,26.83
2018-12-15T15:36:49.200Z,23.35
2018-12-15T15:39:18.383Z,24.87
2018-12-15T15:44:26.046Z,26.23
2018-12-15T15:46:55.116Z,26.43
2018-12-15T15:52:01.936Z,27.17
2018-12-15T15:54:31.092Z,25.62
2018-12-15T15:57:00.151Z,30.83
2018-12-15T15:59:29.262Z,31.57
2018-12-15T16:01:58.406Z,25.33
2018-12-15T16:04:27.578Z,38.60
2018-12-15T16:09:35.942Z,27.60
2018-12-15T16:14:45.147Z,23.43
2018-12-15T16:17:14.297Z,23.93
2018-12-15T16:19:43.932Z,23.20
2018-12-15T16:22:13.162Z,32.63
2018-12-15T16:24:42.415Z,25.08
2018-12-15T16:27:11.530Z,29.53
2018-12-15T16:29:41.240Z,19.03
2018-12-15T16:32:10.356Z,28.30
2018-12-15T16:34:39.898Z,16.43
2018-12-15T16:37:09.151Z,18.83
2018-12-15T16:39:38.325Z,21.30
2018-12-15T16:42:07.484Z,24.37
2018-12-15T16:44:36.718Z,24.10
2018-12-15T16:47:06.884Z,25.62
2018-12-15T16:49:36.805Z,22.50
2018-12-15T16:54:46.064Z,24.60
2018-12-15T16:57:15.901Z,26.60
2018-12-15T16:59:45.048Z,26.40
2018-12-15T17:02:14.408Z,19.73
2018-12-15T17:04:43.536Z,25.87
2018-12-15T17:07:12.692Z,24.37
2018-12-15T17:09:41.903Z,22.52
2018-12-15T17:12:11.060Z,29.12
2018-12-15T17:14:40.215Z,25.67
2018-12-15T17:17:09.344Z,30.80
2018-12-15T17:19:38.578Z,19.83
2018-12-15T17:22:08.472Z,29.27
2018-12-15T17:24:37.633Z,28.50
2018-12-15T17:27:07.460Z,22.60
2018-12-15T17:29:38.503Z,25.95
2018-12-15T17:32:07.672Z,22.20
2018-12-15T17:37:16.841Z,19.20
2018-12-15T17:39:52.724Z,23.60
2018-12-15T17:42:21.983Z,17.10
2018-12-15T17:44:51.186Z,17.27
2018-12-15T17:47:20.347Z,19.23
2018-12-15T17:49:49.447Z,19.45
2018-12-15T17:52:19.016Z,20.40
2018-12-15T17:57:27.157Z,24.67
2018-12-15T17:59:56.330Z,19.17
2018-12-15T18:02:25.436Z,15.67
2018-12-15T18:04:54.678Z,19.70
2018-12-15T18:07:23.750Z,15.63
2018-12-15T18:09:53.032Z,20.40
2018-12-15T18:12:22.188Z,14.60
2018-12-15T18:14:51.307Z,14.33
2018-12-15T18:17:20.603Z,17.57
2018-12-15T18:19:49.740Z,17.53
2018-12-15T18:22:18.857Z,13.07
2018-12-15T18:24:48.078Z,13.08
2018-12-15T18:27:17.955Z,19.37
2018-12-15T18:29:47.244Z,14.35
2018-12-15T18:32:16.540Z,18.73
2018-12-15T18:34:45.716Z,16.77
2018-12-15T18:37:15.092Z,10.63
2018-12-15T18:39:44.238Z,16.70
2018-12-15T18:42:13.278Z,11.97
2018-12-15T18:44:42.496Z,15.00
2018-12-15T18:49:53.001Z,15.80
2018-12-15T18:52:22.110Z,21.37
2018-12-15T18:54:51.222Z,17.35
2018-12-15T18:57:20.354Z,17.33
2018-12-15T18:59:49.458Z,13.35
2018-12-15T19:02:18.503Z,14.30
2018-12-15T19:04:47.604Z,16.70
2018-12-15T19:07:17.831Z,18.77
2018-12-15T19:09:46.955Z,13.77
2018-12-15T19:12:16.107Z,19.03
2018-12-15T19:14:45.388Z,22.17
2018-12-15T19:17:14.523Z,18.70
2018-12-15T19:19:44.296Z,16.20
2018-12-15T19:22:13.508Z,16.97
2018-12-15T19:24:42.772Z,17.80
2018-12-15T19:27:11.921Z,18.40
2018-12-15T19:29:41.264Z,22.77
2018-12-15T19:32:10.415Z,21.47
2018-12-15T19:34:39.615Z,14.97
2018-12-15T19:37:09.334Z,19.35
2018-12-15T19:39:39.351Z,26.05
2018-12-15T19:42:09.476Z,20.02
2018-12-15T19:44:39.343Z,21.80
2018-12-15T19:47:09.611Z,18.32
2018-12-15T19:52:17.669Z,26.80
2018-12-15T19:57:25.943Z,21.03
2018-12-15T19:59:55.071Z,18.30
2018-12-15T20:02:24.244Z,23.60
2018-12-15T20:04:53.475Z,20.88
2018-12-15T20:07:22.704Z,28.63
2018-12-15T20:09:51.795Z,19.92
2018-12-15T20:12:20.904Z,19.20
2018-12-15T20:14:50.064Z,24.72
2018-12-15T20:17:19.309Z,24.97
2018-12-15T20:19:48.515Z,26.70
2018-12-15T20:22:18.128Z,24.67
2018-12-15T20:24:47.186Z,28.20
2018-12-15T20:27:16.761Z,32.45
2018-12-15T20:29:45.928Z,26.55
2018-12-15T20:32:15.108Z,32.74
2018-12-15T20:34:44.332Z,25.68
2018-12-15T20:37:13.521Z,24.57
2018-12-15T20:39:43.681Z,25.67
2018-12-15T20:42:12.889Z,26.27
2018-12-15T20:44:42.037Z,29.32
2018-12-15T20:47:11.181Z,26.73
2018-12-15T20:49:41.865Z,25.23
2018-12-15T20:52:11.008Z,33.43
2018-12-15T20:54:40.368Z,22.63
2018-12-15T20:59:49.508Z,19.87
2018-12-15T21:04:58.249Z,29.87
2018-12-15T21:07:27.392Z,34.37
2018-12-15T21:09:56.504Z,20.32
2018-12-15T21:12:25.755Z,36.73
2018-12-15T21:14:58.504Z,28.50
2018-12-15T21:17:27.687Z,27.80
2018-12-15T21:19:56.857Z,27.90
2018-12-15T21:22:26.063Z,31.53
2018-12-15T21:24:58.177Z,29.17
2018-12-15T21:27:27.307Z,36.20
2018-12-15T21:32:35.899Z,35.50
2018-12-15T21:35:05.266Z,30.63
2018-12-15T21:37:34.313Z,30.77
2018-12-15T21:40:04.036Z,33.50
2018-12-15T21:42:33.230Z,37.65
2018-12-15T21:45:02.501Z,32.23
2018-12-15T21:47:31.625Z,28.70
2018-12-15T21:50:00.710Z,24.63
2018-12-15T21:52:30.974Z,34.07
2018-12-15T21:55:00.048Z,35.73
2018-12-15T22:00:08.162Z,28.50
2018-12-15T22:05:16.520Z,30.33
2018-12-15T22:07:45.701Z,28.73
2018-12-15T22:10:14.851Z,36.33
2018-12-15T22:15:23.108Z,42.30
2018-12-15T22:17:52.372Z,32.42
2018-12-15T22:20:21.865Z,41.00
2018-12-15T22:22:51.123Z,38.97
2018-12-15T22:25:20.329Z,42.87
2018-12-15T22:30:28.656Z,29.30
2018-12-15T22:32:57.970Z,35.98
2018-12-15T22:35:28.212Z,38.07
2018-12-15T22:37:57.377Z,41.23
2018-12-15T22:40:27.115Z,38.77
2018-12-15T22:42:56.233Z,40.60
2018-12-15T22:45:25.404Z,38.40
2018-12-15T22:47:54.952Z,32.83
2018-12-15T22:53:01.864Z,34.33
2018-12-15T22:55:31.012Z,33.15
2018-12-15T22:58:00.237Z,36.40
2018-12-15T23:03:19.212Z,32.70
2018-12-15T23:05:49.475Z,30.40
2018-12-15T23:08:18.813Z,37.80
2018-12-15T23:10:48.006Z,44.38
2018-12-15T23:13:19.350Z,39.90
2018-12-15T23:15:48.557Z,30.00
2018-12-15T23:18:18.099Z,37.20
2018-12-15T23:20:47.209Z,29.85
2018-12-15T23:23:16.430Z,38.80
2018-12-15T23:25:45.692Z,32.47
2018-12-15T23:28:14.955Z,33.27
2018-12-15T23:30:44.340Z,43.93
2018-12-15T23:33:13.367Z,33.53
2018-12-15T23:35:42.811Z,36.77
2018-12-15T23:38:12.724Z,34.45
2018-12-15T23:40:42.925Z,41.75
2018-12-15T23:45:51.927Z,35.60
2018-12-15T23:51:00.619Z,33.23
2018-12-15T23:53:29.775Z,30.13
2018-12-15T23:58:38.005Z,33.63
